Time;durP1;ratioP1;P1;durP2;ratioP2;P2;SDS_P1;SDS_P2;PMS_P1;PMS_P2;Temp;Humidity;BMP_temperature;BMP_pressure;BME280_temperature;BME280_humidity;BME280_pressure;Samples;Min_cycle;Max_cycle;Signal;HPM_P1;HPM_P2
2023/07/26 00:00:40;;;;;;;13.02;6.40;;;17.60;82.90;;;;;;6165720;23;20043;-92
2023/07/26 00:03:07;;;;;;;9.67;5.27;;;17.60;83.10;;;;;;6165967;23;20016;-92
2023/07/26 00:05:34;;;;;;;10.48;6.10;;;17.70;83.00;;;;;;6165951;23;20455;-92
2023/07/26 00:08:01;;;;;;;10.65;5.90;;;17.80;82.80;;;;;;6165520;23;20031;-92
2023/07/26 00:10:28;;;;;;;10.48;5.95;;;17.70;83.00;;;;;;6165898;23;20016;-91
2023/07/26 00:12:55;;;;;;;10.68;5.72;;;17.60;83.40;;;;;;6165820;23;20024;-92
2023/07/26 00:15:22;;;;;;;12.77;5.50;;;17.60;83.40;;;;;;6165593;23;20020;-91
2023/07/26 00:17:49;;;;;;;11.13;5.60;;;17.60;83.50;;;;;;6165943;23;20427;-92
2023/07/26 00:20:16;;;;;;;9.45;5.15;;;17.60;83.50;;;;;;6165165;23;20044;-91
2023/07/26 00:22:43;;;;;;;11.68;5.30;;;17.70;83.50;;;;;;6190458;23;20044;-91
2023/07/26 00:25:10;;;;;;;10.70;5.65;;;17.80;83.30;;;;;;6190978;23;20347;-92
2023/07/26 00:27:37;;;;;;;10.07;5.10;;;17.80;83.10;;;;;;6165624;23;20021;-92
2023/07/26 00:30:05;;;;;;;9.80;5.20;;;17.90;82.80;;;;;;6165572;23;20024;-90
2023/07/26 00:32:33;;;;;;;9.40;4.75;;;17.80;83.10;;;;;;6166180;23;20025;-92
2023/07/26 00:35:02;;;;;;;10.98;5.20;;;17.90;82.90;;;;;;6167824;23;20124;-92
2023/07/26 00:37:29;;;;;;;9.45;5.40;;;17.90;82.70;;;;;;6167449;23;20346;-92
2023/07/26 00:39:57;;;;;;;8.33;4.07;;;17.90;82.50;;;;;;6167539;23;20022;-92
2023/07/26 00:42:24;;;;;;;10.75;4.60;;;18.00;82.40;;;;;;6167429;23;20076;-91
2023/07/26 00:44:51;;;;;;;8.50;4.20;;;18.00;82.30;;;;;;6167347;23;20634;-92
2023/07/26 00:47:19;;;;;;;7.85;4.10;;;18.00;82.00;;;;;;6191802;23;20020;-92
2023/07/26 00:49:46;;;;;;;7.78;3.63;;;18.00;81.90;;;;;;6167141;23;20016;-92
2023/07/26 00:52:14;;;;;;;8.47;3.97;;;18.10;81.90;;;;;;6167145;23;20350;-93
2023/07/26 00:54:41;;;;;;;6.85;3.33;;;18.20;81.90;;;;;;6167523;23;20059;-92
2023/07/26 00:57:09;;;;;;;11.43;3.85;;;18.20;81.80;;;;;;6192005;23;20031;-92
2023/07/26 00:59:36;;;;;;;8.75;4.03;;;18.20;82.00;;;;;;6167170;23;20022;-91
2023/07/26 01:02:03;;;;;;;7.00;3.08;;;18.20;82.10;;;;;;6167169;23;20095;-92
2023/07/26 01:04:30;;;;;;;8.33;3.43;;;18.20;82.20;;;;;;6167072;23;20138;-92
2023/07/26 01:07:56;;;;;;;8.32;3.47;;;18.30;82.00;;;;;;6167216;23;20451;-91
2023/07/26 01:10:38;;;;;;;8.35;3.67;;;18.30;81.70;;;;;;6006510;23;20545;-91
2023/07/26 01:13:19;;;;;;;8.07;3.78;;;18.30;81.50;;;;;;6167270;23;20024;-91
2023/07/26 01:15:49;;;;;;;7.43;3.72;;;18.30;81.30;;;;;;6166630;23;20049;-91
2023/07/26 01:18:17;;;;;;;9.63;4.97;;;18.40;81.30;;;;;;6166717;23;20107;-91
2023/07/26 01:20:44;;;;;;;10.07;4.97;;;18.30;81.20;;;;;;6166886;23;20020;-90
2023/07/26 01:23:11;;;;;;;9.68;5.07;;;18.30;81.30;;;;;;6166939;23;20071;-91
2023/07/26 01:25:38;;;;;;;9.00;4.32;;;18.30;81.30;;;;;;6167039;23;20044;-91
2023/07/26 01:28:05;;;;;;;9.25;4.63;;;18.30;81.30;;;;;;6166682;23;20098;-91
2023/07/26 01:30:33;;;;;;;12.70;5.40;;;18.40;81.10;;;;;;6166591;23;20020;-91
2023/07/26 01:33:04;;;;;;;8.80;5.03;;;18.50;81.10;;;;;;6166624;23;20063;-91
2023/07/26 01:35:32;;;;;;;10.05;5.10;;;18.50;81.20;;;;;;6166753;23;20020;-91
2023/07/26 01:38:01;;;;;;;11.77;4.82;;;18.50;81.20;;;;;;6191228;23;20027;-91
2023/07/26 01:40:28;;;;;;;10.65;5.13;;;18.50;81.50;;;;;;6166089;23;20505;-91
2023/07/26 01:42:57;;;;;;;10.40;5.63;;;18.40;81.70;;;;;;6166812;23;20021;-90
2023/07/26 01:45:25;;;;;;;11.27;5.53;;;18.50;81.80;;;;;;6166143;23;20083;-90
2023/07/26 01:47:52;;;;;;;12.13;6.88;;;18.50;81.50;;;;;;6190852;23;20103;-91
2023/07/26 01:50:20;;;;;;;14.77;6.95;;;18.50;81.50;;;;;;6166648;23;20021;-91
2023/07/26 01:52:47;;;;;;;17.13;8.18;;;18.50;81.30;;;;;;6166325;23;20020;-91
2023/07/26 01:55:14;;;;;;;13.43;7.00;;;18.40;81.50;;;;;;6166300;23;20020;-91
2023/07/26 01:57:41;;;;;;;16.85;7.80;;;18.40;81.50;;;;;;6191555;23;20016;-91
2023/07/26 02:00:09;;;;;;;17.13;7.82;;;18.40;81.40;;;;;;6166319;23;20040;-91
2023/07/26 02:02:39;;;;;;;14.82;7.00;;;18.40;81.40;;;;;;6191958;23;20495;-92
2023/07/26 02:05:07;;;;;;;17.35;7.40;;;18.40;81.40;;;;;;6166603;23;20020;-91
2023/07/26 02:07:34;;;;;;;14.73;7.13;;;18.40;81.50;;;;;;6166420;23;20017;-91
2023/07/26 02:10:01;;;;;;;14.82;6.80;;;18.40;81.40;;;;;;6166448;23;20079;-91
2023/07/26 02:12:28;;;;;;;15.95;7.70;;;18.50;81.30;;;;;;6166584;23;20079;-91
2023/07/26 02:14:55;;;;;;;14.43;6.85;;;18.50;81.10;;;;;;6166577;23;20443;-92
2023/07/26 02:17:23;;;;;;;17.33;7.90;;;18.50;81.20;;;;;;6185842;23;20108;-91
2023/07/26 02:19:50;;;;;;;12.63;7.10;;;18.40;81.60;;;;;;6161319;23;20013;-91
2023/07/26 02:22:17;;;;;;;17.65;7.60;;;18.40;81.60;;;;;;6161765;23;20017;-91
2023/07/26 02:24:44;;;;;;;14.93;7.78;;;18.40;81.70;;;;;;6161094;23;20071;-91
2023/07/26 02:27:11;;;;;;;15.98;7.57;;;18.40;81.80;;;;;;6161109;23;20028;-91
2023/07/26 02:29:38;;;;;;;12.25;7.13;;;18.30;82.00;;;;;;6161393;23;20045;-91
2023/07/26 02:32:05;;;;;;;13.60;7.53;;;18.40;82.00;;;;;;6161015;23;20032;-91
2023/07/26 02:34:33;;;;;;;13.77;7.45;;;18.40;81.90;;;;;;6162040;23;20394;-91
2023/07/26 02:37:03;;;;;;;16.10;7.78;;;18.50;81.90;;;;;;6161633;23;20021;-91
2023/07/26 02:39:30;;;;;;;15.85;8.63;;;18.50;81.70;;;;;;6161217;23;20017;-91
2023/07/26 02:41:58;;;;;;;16.02;8.50;;;18.50;81.40;;;;;;6161637;23;20044;-91
2023/07/26 02:44:25;;;;;;;16.53;7.90;;;18.50;81.40;;;;;;6161241;23;20506;-92
2023/07/26 02:46:52;;;;;;;16.65;8.32;;;18.50;81.60;;;;;;6161153;23;20017;-92
2023/07/26 02:49:19;;;;;;;18.83;9.23;;;18.50;81.70;;;;;;6161051;23;20021;-91
2023/07/26 02:51:49;;;;;;;15.20;8.48;;;18.50;81.80;;;;;;6161556;23;20028;-91
2023/07/26 02:54:16;;;;;;;18.08;9.48;;;18.50;81.60;;;;;;6161247;23;20067;-91
2023/07/26 02:56:43;;;;;;;19.30;10.37;;;18.50;81.70;;;;;;6160655;23;20390;-89
2023/07/26 02:59:10;;;;;;;27.75;13.20;;;18.60;81.80;;;;;;6161661;23;20021;-94
2023/07/26 03:01:37;;;;;;;20.33;11.00;;;18.50;81.70;;;;;;6186106;23;20013;-93
2023/07/26 03:04:04;;;;;;;26.70;12.82;;;18.60;81.90;;;;;;6161694;23;20027;-94
2023/07/26 03:06:31;;;;;;;30.15;13.88;;;18.50;82.00;;;;;;6186196;23;20052;-94
2023/07/26 03:08:58;;;;;;;31.07;13.50;;;18.40;82.40;;;;;;6161469;23;20017;-94
2023/07/26 03:11:25;;;;;;;31.23;15.80;;;18.30;82.70;;;;;;6186080;23;20352;-94
2023/07/26 03:13:52;;;;;;;34.00;15.70;;;18.30;82.70;;;;;;6161345;23;20031;-95
2023/07/26 03:16:19;;;;;;;31.77;14.73;;;18.30;82.80;;;;;;6185947;23;20459;-94
2023/07/26 03:18:46;;;;;;;32.35;14.57;;;18.20;82.90;;;;;;6186234;23;20056;-94
2023/07/26 03:21:13;;;;;;;30.93;14.83;;;18.20;83.00;;;;;;6161669;23;20017;-94
2023/07/26 03:23:40;;;;;;;32.25;16.13;;;18.20;83.00;;;;;;6161526;23;20024;-95
2023/07/26 03:26:08;;;;;;;31.58;15.80;;;18.20;83.10;;;;;;6185929;23;20439;-94
2023/07/26 03:28:35;;;;;;;35.17;16.92;;;18.20;83.20;;;;;;6161335;23;20436;-94
2023/07/26 03:31:02;;;;;;;39.15;18.80;;;18.10;83.40;;;;;;6186038;23;20025;-95
2023/07/26 03:33:29;;;;;;;34.47;16.80;;;18.20;83.40;;;;;;6161187;23;20021;-94
2023/07/26 03:35:56;;;;;;;41.28;19.83;;;18.20;83.40;;;;;;6185944;23;20021;-94
2023/07/26 03:38:23;;;;;;;31.80;16.88;;;18.20;83.40;;;;;;6185999;23;20108;-93
2023/07/26 03:40:50;;;;;;;36.28;17.58;;;18.20;83.20;;;;;;6186023;23;20027;-94
2023/07/26 03:43:17;;;;;;;30.10;16.17;;;18.20;83.30;;;;;;6161294;23;20017;-94
2023/07/26 03:45:44;;;;;;;34.33;17.50;;;18.20;83.30;;;;;;6185773;23;20329;-94
2023/07/26 03:48:12;;;;;;;31.02;17.45;;;18.10;83.40;;;;;;6161445;23;20356;-95
2023/07/26 03:50:41;;;;;;;29.23;16.20;;;18.10;83.50;;;;;;6161638;23;20021;-94
2023/07/26 03:53:08;;;;;;;24.65;15.55;;;18.10;83.70;;;;;;6161343;23;20025;-94
2023/07/26 03:55:35;;;;;;;27.00;14.60;;;18.00;83.70;;;;;;6186070;23;20060;-94
2023/07/26 03:58:02;;;;;;;22.57;14.57;;;17.80;84.00;;;;;;6161159;23;20079;-93
2023/07/26 04:00:29;;;;;;;22.75;14.05;;;17.70;84.30;;;;;;6185772;23;20020;-94
2023/07/26 04:02:57;;;;;;;21.08;13.85;;;17.80;84.30;;;;;;6185733;23;20448;-94
2023/07/26 04:05:24;;;;;;;24.92;14.43;;;17.80;84.30;;;;;;6161319;23;20028;-94
2023/07/26 04:07:51;;;;;;;23.67;13.38;;;17.80;84.00;;;;;;6186789;23;20027;-94
2023/07/26 04:10:18;;;;;;;25.43;14.43;;;17.70;83.90;;;;;;6188235;23;20020;-94
2023/07/26 04:12:45;;;;;;;24.40;13.48;;;17.60;84.20;;;;;;6163137;23;20021;-94
2023/07/26 04:15:12;;;;;;;26.48;14.52;;;17.60;84.30;;;;;;6187630;23;20017;-94
2023/07/26 04:17:39;;;;;;;28.15;15.27;;;17.60;84.20;;;;;;6168284;23;20355;-94
2023/07/26 04:20:07;;;;;;;23.90;14.05;;;17.50;84.50;;;;;;6168195;23;20012;-93
2023/07/26 04:22:34;;;;;;;29.33;15.23;;;17.50;84.70;;;;;;6169105;23;20016;-94
2023/07/26 04:25:01;;;;;;;26.27;14.82;;;17.50;84.50;;;;;;6168077;23;20382;-94
2023/07/26 04:27:28;;;;;;;31.63;15.68;;;17.50;84.40;;;;;;6168312;23;20020;-94
2023/07/26 04:29:55;;;;;;;28.77;16.55;;;17.50;84.40;;;;;;6168855;23;20071;-94
2023/07/26 04:32:22;;;;;;;28.50;16.08;;;17.50;84.40;;;;;;6168151;23;20025;-93
2023/07/26 04:34:49;;;;;;;29.83;16.83;;;17.50;84.60;;;;;;6168591;23;20020;-93
2023/07/26 04:37:16;;;;;;;36.85;18.73;;;17.50;84.40;;;;;;6168305;23;20358;-94
2023/07/26 04:39:45;;;;;;;30.95;18.10;;;17.40;84.30;;;;;;6168187;23;20028;-94
2023/07/26 04:42:12;;;;;;;36.92;18.90;;;17.40;84.60;;;;;;6168316;23;20013;-94
2023/07/26 04:44:40;;;;;;;33.38;16.90;;;17.40;84.60;;;;;;6168208;23;20013;-94
2023/07/26 04:47:07;;;;;;;36.20;16.23;;;17.30;84.50;;;;;;6168380;23;20013;-94
2023/07/26 04:49:34;;;;;;;36.92;18.00;;;17.30;84.50;;;;;;6168191;23;20021;-94
2023/07/26 04:52:01;;;;;;;35.08;17.52;;;17.40;84.70;;;;;;6168107;23;20012;-94
2023/07/26 04:54:28;;;;;;;32.63;16.77;;;17.40;84.50;;;;;;6168186;23;20099;-93
2023/07/26 04:56:55;;;;;;;30.33;16.77;;;17.30;84.20;;;;;;6168111;23;20019;-94
2023/07/26 04:59:22;;;;;;;34.23;16.60;;;17.30;84.20;;;;;;6168193;23;20490;-93
2023/07/26 05:01:49;;;;;;;29.75;15.35;;;17.30;84.40;;;;;;6168204;23;20024;-94
2023/07/26 05:04:16;;;;;;;39.53;15.35;;;17.20;84.40;;;;;;6168188;23;20017;-96
2023/07/26 05:06:43;;;;;;;40.10;16.42;;;17.30;84.40;;;;;;6171283;23;20024;-94
2023/07/26 05:09:11;;;;;;;26.83;14.10;;;17.30;84.00;;;;;;6172918;23;20016;-95
2023/07/26 05:11:38;;;;;;;23.27;12.97;;;17.30;84.00;;;;;;6172436;23;20355;-93
2023/07/26 05:14:05;;;;;;;27.52;14.18;;;17.20;83.70;;;;;;6197154;23;20021;-94
2023/07/26 05:16:32;;;;;;;27.15;14.00;;;17.10;83.90;;;;;;6167664;23;20451;-93
2023/07/26 05:19:00;;;;;;;31.10;15.05;;;17.10;84.00;;;;;;6162886;23;20025;-90
2023/07/26 05:21:27;;;;;;;30.50;14.00;;;17.10;83.80;;;;;;6187130;23;20402;-91
2023/07/26 05:23:54;;;;;;;27.30;13.80;;;17.00;83.80;;;;;;6186714;23;20115;-89
2023/07/26 05:26:21;;;;;;;28.40;14.98;;;17.10;83.80;;;;;;6161932;23;20471;-87
2023/07/26 05:28:48;;;;;;;36.95;15.50;;;17.00;83.70;;;;;;6186656;23;20462;-90
2023/07/26 05:31:15;;;;;;;28.23;15.90;;;17.00;83.70;;;;;;6186892;23;20100;-90
2023/07/26 05:33:42;;;;;;;30.85;15.75;;;17.00;83.80;;;;;;6161758;23;20103;-91
2023/07/26 05:36:10;;;;;;;26.77;14.83;;;16.90;83.70;;;;;;6186750;23;20337;-90
2023/07/26 05:38:37;;;;;;;30.35;17.08;;;16.80;83.70;;;;;;6161914;23;20044;-90
2023/07/26 05:41:05;;;;;;;25.92;16.45;;;16.70;83.80;;;;;;6186484;23;20432;-90
2023/07/26 05:43:32;;;;;;;26.85;15.48;;;16.70;83.70;;;;;;6161957;23;20344;-90
2023/07/26 05:46:01;;;;;;;24.30;14.88;;;16.70;83.50;;;;;;6186456;23;20099;-90
2023/07/26 05:48:30;;;;;;;24.83;14.47;;;16.80;83.00;;;;;;6186519;23;20021;-89
2023/07/26 05:50:57;;;;;;;23.65;13.82;;;16.80;82.60;;;;;;6186853;23;20459;-91
2023/07/26 05:53:24;;;;;;;24.58;14.05;;;16.80;82.30;;;;;;6161914;23;20052;-91
2023/07/26 05:55:51;;;;;;;17.85;12.75;;;16.70;82.40;;;;;;6186554;23;20028;-92
2023/07/26 05:58:18;;;;;;;17.17;11.35;;;16.50;82.30;;;;;;6186359;23;20023;-91
2023/07/26 06:00:45;;;;;;;18.37;11.13;;;16.40;82.50;;;;;;6186763;23;20440;-91
2023/07/26 06:03:12;;;;;;;16.92;11.38;;;16.30;82.70;;;;;;6161799;23;20351;-91
2023/07/26 06:05:40;;;;;;;16.60;11.88;;;16.30;82.80;;;;;;6186333;23;20013;-91
2023/07/26 06:08:07;;;;;;;17.35;11.38;;;16.30;83.00;;;;;;6162027;23;20360;-91
2023/07/26 06:10:34;;;;;;;16.85;10.50;;;16.30;83.10;;;;;;6186594;23;20391;-91
2023/07/26 06:13:01;;;;;;;18.57;11.10;;;16.20;83.10;;;;;;6161959;23;20028;-92
2023/07/26 06:15:28;;;;;;;15.98;9.60;;;16.30;82.90;;;;;;6165830;23;20391;-95
2023/07/26 06:17:55;;;;;;;16.08;10.18;;;16.30;82.80;;;;;;6167305;23;20027;-95
2023/07/26 06:20:22;;;;;;;15.82;10.45;;;16.30;82.50;;;;;;6166947;23;20063;-95
2023/07/26 06:22:49;;;;;;;15.95;9.48;;;16.30;82.70;;;;;;6167058;23;20021;-95
2023/07/26 06:25:17;;;;;;;14.87;9.30;;;16.30;82.30;;;;;;6167153;23;20020;-94
2023/07/26 06:27:44;;;;;;;13.95;9.70;;;16.30;82.10;;;;;;6167019;23;20021;-94
2023/07/26 06:30:13;;;;;;;16.30;8.95;;;16.20;82.10;;;;;;6166823;23;20510;-94
2023/07/26 06:32:40;;;;;;;15.75;8.85;;;16.20;82.20;;;;;;6167042;23;20021;-95
2023/07/26 06:35:11;;;;;;;15.13;8.98;;;16.10;82.30;;;;;;6166902;23;20059;-95
2023/07/26 06:37:38;;;;;;;15.17;9.27;;;16.10;82.50;;;;;;6166900;23;20351;-95
2023/07/26 06:40:05;;;;;;;12.82;8.02;;;16.10;82.40;;;;;;6166966;23;20023;-95
2023/07/26 06:42:33;;;;;;;14.32;8.27;;;16.10;82.20;;;;;;6166881;23;20103;-95
2023/07/26 06:45:00;;;;;;;11.60;7.85;;;16.10;82.30;;;;;;6167102;23;20048;-93
2023/07/26 06:47:27;;;;;;;14.85;8.43;;;16.10;82.20;;;;;;6167440;23;20017;-94
2023/07/26 06:49:54;;;;;;;13.00;7.50;;;16.10;81.90;;;;;;6166619;23;20017;-93
2023/07/26 06:52:21;;;;;;;12.52;7.65;;;16.20;81.90;;;;;;6166504;23;20017;-93
2023/07/26 06:54:48;;;;;;;12.38;6.88;;;16.20;81.80;;;;;;6166661;23;20024;-92
2023/07/26 06:57:15;;;;;;;11.57;6.10;;;16.30;81.80;;;;;;6166536;23;20028;-93
2023/07/26 06:59:42;;;;;;;14.90;6.22;;;16.20;81.70;;;;;;6166716;23;20091;-92
2023/07/26 07:02:11;;;;;;;13.17;5.90;;;16.20;82.00;;;;;;6192643;23;20027;-92
2023/07/26 07:04:38;;;;;;;12.38;5.80;;;16.20;81.90;;;;;;6166614;23;20095;-92
2023/07/26 07:07:05;;;;;;;11.18;6.00;;;16.20;82.00;;;;;;6166815;23;20020;-92
2023/07/26 07:09:32;;;;;;;11.38;5.63;;;16.30;82.00;;;;;;6166784;23;20027;-94
2023/07/26 07:11:59;;;;;;;9.07;5.40;;;16.30;81.40;;;;;;6166934;23;20044;-95
2023/07/26 07:14:27;;;;;;;12.43;6.57;;;16.30;81.20;;;;;;6166982;23;20048;-93
2023/07/26 07:16:54;;;;;;;14.05;6.18;;;16.30;81.70;;;;;;6166301;23;20035;-94
2023/07/26 07:19:21;;;;;;;10.88;6.57;;;16.30;81.20;;;;;;6166540;23;20016;-93
2023/07/26 07:21:48;;;;;;;10.80;6.53;;;16.20;81.70;;;;;;6166516;23;20017;-94
2023/07/26 07:24:15;;;;;;;16.55;7.30;;;16.20;81.60;;;;;;6166440;23;20021;-93
2023/07/26 07:26:42;;;;;;;11.80;6.43;;;16.30;81.80;;;;;;6166683;23;20021;-93
2023/07/26 07:29:09;;;;;;;13.02;7.00;;;16.30;81.60;;;;;;6166808;23;20019;-93
2023/07/26 07:31:36;;;;;;;13.50;6.38;;;16.30;81.50;;;;;;6166613;23;20083;-93
2023/07/26 07:34:03;;;;;;;13.57;6.10;;;16.20;81.70;;;;;;6166685;23;20442;-93
2023/07/26 07:36:30;;;;;;;14.50;7.45;;;16.20;81.80;;;;;;6166369;23;20025;-93
2023/07/26 07:38:57;;;;;;;13.73;7.50;;;16.10;81.50;;;;;;6191070;23;20051;-94
2023/07/26 07:41:24;;;;;;;12.85;7.07;;;16.00;82.40;;;;;;6166103;23;20024;-93
2023/07/26 07:43:52;;;;;;;15.05;8.20;;;16.00;82.50;;;;;;6166585;23;20020;-93
2023/07/26 07:46:19;;;;;;;15.23;8.30;;;15.90;82.40;;;;;;6166546;23;20040;-92
2023/07/26 07:48:46;;;;;;;12.60;7.25;;;15.80;83.20;;;;;;6166542;23;20013;-93
2023/07/26 07:51:13;;;;;;;11.60;6.37;;;15.80;83.20;;;;;;6166609;23;20024;-94
2023/07/26 07:53:40;;;;;;;9.27;5.78;;;15.60;83.20;;;;;;6166650;23;20075;-92
2023/07/26 07:56:07;;;;;;;10.93;5.80;;;15.60;83.20;;;;;;6166590;23;20021;-92
2023/07/26 07:58:34;;;;;;;9.63;5.40;;;15.50;83.80;;;;;;6166387;23;20103;-93
2023/07/26 08:01:01;;;;;;;9.40;5.03;;;15.60;84.00;;;;;;6166481;23;20510;-94
2023/07/26 08:03:29;;;;;;;9.30;5.50;;;15.50;83.70;;;;;;6166270;23;20016;-93
2023/07/26 08:05:57;;;;;;;8.70;4.55;;;15.50;84.10;;;;;;6190999;23;20100;-93
2023/07/26 08:08:24;;;;;;;8.90;4.82;;;15.50;84.00;;;;;;6166485;23;20024;-93
2023/07/26 08:10:51;;;;;;;8.45;4.45;;;15.50;84.50;;;;;;6166418;23;20028;-93
2023/07/26 08:13:19;;;;;;;8.27;4.97;;;15.50;84.20;;;;;;6166558;23;20405;-93
2023/07/26 08:15:46;;;;;;;8.00;4.93;;;15.50;84.00;;;;;;6165189;23;20447;-93
2023/07/26 08:18:14;;;;;;;9.10;5.13;;;15.50;83.70;;;;;;6190982;23;20020;-93
2023/07/26 08:20:41;;;;;;;10.13;5.38;;;15.50;84.30;;;;;;6166029;23;20023;-94
2023/07/26 08:23:08;;;;;;;7.70;4.63;;;15.50;84.30;;;;;;6166420;23;20517;-93
2023/07/26 08:25:36;;;;;;;9.13;4.72;;;15.60;84.20;;;;;;6166565;23;20017;-94
2023/07/26 08:28:03;;;;;;;9.13;5.07;;;15.50;84.10;;;;;;6166178;23;20021;-93
2023/07/26 08:30:30;;;;;;;7.65;4.28;;;15.60;84.50;;;;;;6166427;23;20020;-93
2023/07/26 08:32:57;;;;;;;7.78;4.13;;;15.60;84.40;;;;;;6166515;23;20475;-93
2023/07/26 08:35:25;;;;;;;7.70;3.95;;;15.60;84.10;;;;;;6190680;23;20017;-93
2023/07/26 08:37:52;;;;;;;8.98;4.32;;;15.70;83.90;;;;;;6166422;23;20043;-94
2023/07/26 08:40:19;;;;;;;6.10;3.43;;;15.70;84.00;;;;;;6166338;23;20103;-93
2023/07/26 08:42:47;;;;;;;6.88;4.25;;;15.70;84.20;;;;;;6166403;23;20020;-94
2023/07/26 08:45:16;;;;;;;6.88;3.60;;;15.60;84.30;;;;;;6166072;23;20534;-93
2023/07/26 08:47:43;;;;;;;6.10;3.35;;;15.80;84.00;;;;;;6166528;23;20021;-93
2023/07/26 08:50:11;;;;;;;6.70;3.55;;;15.70;83.70;;;;;;6166291;23;20070;-94
2023/07/26 08:52:39;;;;;;;5.47;3.10;;;15.70;84.10;;;;;;6166380;23;20027;-93
2023/07/26 08:55:08;;;;;;;5.90;2.80;;;15.80;84.20;;;;;;6167909;23;20025;-94
2023/07/26 08:57:36;;;;;;;5.85;3.47;;;15.80;84.00;;;;;;6167886;23;20024;-94
2023/07/26 09:00:07;;;;;;;6.28;2.97;;;15.80;84.10;;;;;;6168358;23;20047;-93
2023/07/26 09:02:35;;;;;;;6.93;3.28;;;15.90;84.10;;;;;;6167763;23;20059;-94
2023/07/26 09:05:03;;;;;;;5.73;3.27;;;16.00;84.00;;;;;;6168128;23;20104;-94
2023/07/26 09:07:30;;;;;;;6.18;3.22;;;16.00;83.50;;;;;;6167803;23;20078;-92
2023/07/26 09:09:57;;;;;;;6.80;3.90;;;15.80;83.20;;;;;;6168077;23;20017;-93
2023/07/26 09:12:26;;;;;;;7.50;3.90;;;15.70;83.50;;;;;;6192334;23;20028;-93
2023/07/26 09:14:58;;;;;;;7.25;4.03;;;15.70;83.70;;;;;;6167817;23;20044;-93
2023/07/26 09:17:38;;;;;;;7.47;3.33;;;15.80;83.80;;;;;;6167797;23;20107;-94
2023/07/26 09:20:19;;;;;;;6.70;3.45;;;15.80;83.40;;;;;;6167891;23;20032;-93
2023/07/26 09:22:47;;;;;;;7.75;3.90;;;15.80;83.10;;;;;;6167753;23;20063;-92
2023/07/26 09:25:39;;;;;;;7.72;3.40;;;15.90;83.00;;;;;;6167730;23;20017;-94
2023/07/26 09:28:08;;;;;;;6.75;3.85;;;15.80;82.90;;;;;;6167756;23;20024;-93
2023/07/26 09:30:36;;;;;;;7.57;4.20;;;15.70;83.10;;;;;;6167704;23;20012;-94
2023/07/26 09:33:05;;;;;;;6.45;3.58;;;15.60;83.80;;;;;;6167724;23;20447;-93
2023/07/26 09:35:43;;;;;;;8.02;4.40;;;15.50;83.90;;;;;;6167726;23;20025;-93
2023/07/26 09:38:12;;;;;;;7.30;4.32;;;15.50;84.40;;;;;;6167650;23;20031;-94
2023/07/26 09:40:39;;;;;;;7.43;3.75;;;15.60;84.20;;;;;;6167388;23;20354;-94
2023/07/26 09:43:06;;;;;;;6.27;3.30;;;15.60;84.20;;;;;;6167436;23;20040;-94
2023/07/26 09:45:34;;;;;;;6.70;3.83;;;15.70;83.70;;;;;;6167655;23;20351;-94
2023/07/26 09:48:11;;;;;;;6.50;3.58;;;15.50;84.00;;;;;;6167431;23;20016;-94
2023/07/26 09:50:44;;;;;;;6.60;4.00;;;15.50;84.40;;;;;;6168208;23;20013;-94
2023/07/26 09:53:11;;;;;;;5.97;3.15;;;15.50;84.50;;;;;;6167579;23;20459;-94
2023/07/26 09:55:40;;;;;;;5.90;3.53;;;15.40;84.20;;;;;;6167519;23;20088;-94
2023/07/26 09:58:07;;;;;;;5.85;3.08;;;15.40;84.80;;;;;;6167332;23;20033;-93
2023/07/26 10:00:36;;;;;;;5.43;3.05;;;15.20;84.70;;;;;;6167568;23;20040;-94
2023/07/26 10:03:05;;;;;;;6.07;2.90;;;15.30;84.50;;;;;;6167303;23;20021;-93
2023/07/26 10:05:42;;;;;;;6.60;3.25;;;15.30;84.50;;;;;;6191834;23;20024;-93
2023/07/26 10:08:09;;;;;;;6.20;3.03;;;15.40;84.40;;;;;;6167494;23;20477;-93
2023/07/26 10:10:36;;;;;;;6.53;2.67;;;15.50;84.50;;;;;;6167525;23;20020;-94
2023/07/26 10:13:05;;;;;;;6.63;3.00;;;15.40;83.70;;;;;;6191925;23;20021;-94
2023/07/26 10:15:33;;;;;;;7.32;3.08;;;15.30;83.80;;;;;;6167271;23;20024;-94
2023/07/26 10:18:01;;;;;;;5.20;2.70;;;15.40;84.10;;;;;;6168004;23;20021;-93
2023/07/26 10:20:28;;;;;;;6.70;2.70;;;15.40;83.50;;;;;;6167311;23;20067;-94
2023/07/26 10:23:03;;;;;;;5.60;2.25;;;15.30;83.30;;;;;;6167271;23;20347;-95
2023/07/26 10:25:33;;;;;;;4.40;2.28;;;15.00;83.90;;;;;;6167475;23;20390;-93
2023/07/26 10:28:02;;;;;;;4.80;2.10;;;14.90;83.60;;;;;;6167418;23;20023;-94
2023/07/26 10:30:29;;;;;;;5.43;2.40;;;14.80;83.80;;;;;;6166875;23;20020;-94
2023/07/26 10:32:59;;;;;;;4.37;1.17;;;14.90;84.20;;;;;;6167317;23;20024;-94
2023/07/26 10:35:33;;;;;;;4.55;1.25;;;14.90;83.50;;;;;;6167107;23;20044;-93
2023/07/26 10:38:03;;;;;;;3.30;1.30;;;14.80;83.30;;;;;;6167264;23;20020;-94
2023/07/26 10:40:35;;;;;;;4.43;1.50;;;14.70;84.10;;;;;;6167157;23;20052;-94
2023/07/26 10:43:36;;;;;;;5.30;1.60;;;14.70;84.30;;;;;;6167302;23;20016;-94
2023/07/26 10:46:13;;;;;;;4.57;1.50;;;14.90;83.90;;;;;;6167113;23;20040;-94
2023/07/26 10:48:42;;;;;;;5.70;2.30;;;14.90;83.90;;;;;;6191491;23;20021;-94
2023/07/26 10:51:52;;;;;;;6.05;1.80;;;15.00;83.80;;;;;;6167204;23;20032;-93
2023/07/26 10:54:34;;;;;;;7.32;1.80;;;15.00;83.70;;;;;;6125834;23;20104;-94
2023/07/26 10:57:31;;;;;;;6.50;2.00;;;15.00;83.80;;;;;;6167071;23;20470;-94
2023/07/26 10:59:59;;;;;;;5.13;1.90;;;15.00;83.70;;;;;;6166972;23;20473;-93
2023/07/26 11:02:59;;;;;;;5.80;2.17;;;15.00;84.10;;;;;;6166944;23;20355;-93
2023/07/26 11:05:29;;;;;;;6.97;1.75;;;15.00;83.80;;;;;;6166900;23;20017;-95
2023/07/26 11:08:00;;;;;;;5.35;2.13;;;15.10;83.70;;;;;;6166674;23;20016;-94
2023/07/26 11:10:50;;;;;;;6.32;1.63;;;15.10;83.40;;;;;;6167008;23;20016;-94
2023/07/26 11:13:25;;;;;;;5.07;1.83;;;15.10;82.90;;;;;;6166958;23;20032;-94
2023/07/26 11:15:53;;;;;;;6.65;1.55;;;15.10;83.50;;;;;;6191005;23;20120;-93
2023/07/26 11:18:41;;;;;;;5.65;1.60;;;15.10;83.80;;;;;;6171080;23;20095;-94
2023/07/26 11:21:15;;;;;;;3.92;1.40;;;15.30;83.60;;;;;;6166670;23;20020;-93
2023/07/26 11:23:43;;;;;;;7.22;2.00;;;15.30;83.10;;;;;;6166891;23;20016;-92
2023/07/26 11:26:10;;;;;;;4.40;1.67;;;15.40;83.50;;;;;;6166989;23;20354;-93
2023/07/26 11:28:38;;;;;;;4.68;1.65;;;15.40;82.60;;;;;;6166567;23;20093;-94
2023/07/26 11:31:06;;;;;;;5.95;2.00;;;15.50;82.90;;;;;;6166672;23;20016;-94
2023/07/26 11:33:36;;;;;;;5.80;1.67;;;15.50;82.20;;;;;;6166782;23;20020;-93
2023/07/26 11:36:07;;;;;;;6.07;2.45;;;15.40;81.90;;;;;;6166436;23;20025;-94
2023/07/26 11:38:34;;;;;;;5.57;1.60;;;15.50;82.40;;;;;;6191626;23;20025;-94
2023/07/26 11:41:03;;;;;;;5.32;1.50;;;15.30;81.90;;;;;;6166801;23;20074;-94
2023/07/26 11:43:30;;;;;;;5.10;1.60;;;15.20;82.20;;;;;;6166417;23;20008;-94
2023/07/26 11:45:58;;;;;;;6.65;1.85;;;15.20;82.90;;;;;;6166558;23;20044;-94
2023/07/26 11:48:29;;;;;;;6.25;2.10;;;15.20;82.90;;;;;;6166644;23;20454;-94
2023/07/26 11:51:03;;;;;;;6.10;2.07;;;15.20;83.20;;;;;;6167504;23;20020;-93
2023/07/26 11:53:34;;;;;;;5.32;2.00;;;15.30;83.00;;;;;;6166684;23;20020;-94
2023/07/26 11:56:10;;;;;;;5.65;1.85;;;15.30;83.20;;;;;;6168386;23;20474;-94
2023/07/26 11:58:37;;;;;;;6.45;2.58;;;15.20;82.60;;;;;;6166455;23;20028;-95
2023/07/26 12:01:05;;;;;;;6.35;2.08;;;15.10;82.50;;;;;;6166485;23;20450;-94
2023/07/26 12:03:33;;;;;;;5.33;1.97;;;15.10;83.00;;;;;;6166566;23;20016;-94
2023/07/26 12:06:02;;;;;;;5.72;2.42;;;15.10;83.00;;;;;;6191299;23;20366;-94
2023/07/26 12:08:35;;;;;;;8.43;2.45;;;15.10;82.60;;;;;;6167706;23;20013;-93
2023/07/26 12:11:05;;;;;;;5.85;2.20;;;15.00;82.70;;;;;;6166517;23;20024;-94
2023/07/26 12:13:34;;;;;;;5.78;2.78;;;15.00;82.40;;;;;;6166738;23;20020;-95
2023/07/26 12:16:02;;;;;;;7.80;2.27;;;15.00;82.90;;;;;;6166131;23;20099;-93
2023/07/26 12:18:30;;;;;;;7.50;2.72;;;15.00;83.00;;;;;;6190950;23;20091;-94
2023/07/26 12:21:03;;;;;;;7.18;2.40;;;15.20;82.90;;;;;;6166495;23;20025;-93
2023/07/26 12:23:54;;;;;;;6.85;2.47;;;15.10;83.00;;;;;;6167680;23;20095;-94
2023/07/26 12:26:29;;;;;;;6.97;2.60;;;15.20;82.70;;;;;;6166308;23;20021;-93
2023/07/26 12:28:59;;;;;;;6.63;2.50;;;15.30;82.70;;;;;;6167310;23;20059;-94
2023/07/26 12:31:29;;;;;;;7.57;2.67;;;15.30;82.80;;;;;;6168365;23;20066;-94
2023/07/26 12:34:06;;;;;;;6.75;2.42;;;15.40;82.60;;;;;;6168744;23;20027;-94
2023/07/26 12:36:44;;;;;;;6.50;2.47;;;15.40;82.70;;;;;;6168467;23;20394;-94
2023/07/26 12:39:13;;;;;;;8.10;2.88;;;15.50;82.60;;;;;;6168348;23;20016;-95
2023/07/26 12:41:41;;;;;;;5.67;2.27;;;15.60;82.70;;;;;;6168103;23;20439;-94
2023/07/26 12:44:13;;;;;;;9.40;2.80;;;15.50;82.50;;;;;;6168755;23;20028;-94
2023/07/26 12:46:41;;;;;;;6.38;2.40;;;15.50;82.40;;;;;;6168183;23;20027;-94